N311TY KL26-KTOA

Flight info

Callsign N311TY
Flight time 0h 26m
Altitude 8000
Route RAVON V21 SLI V64 WILMA
Aircraft C408/M-SDFGRY/S

Departure

Time 2026-05-07 01:39
Airport Hesperia Airport (KL26)

Arrival

Time 2026-05-07 02:05
Airport Zamperini Field (KTOA)
Time Latitude Longitude Altitude Speed Heading
2026-05-07 01:22 34.37981 -117.31274 3336 ft 0 kts 132°
2026-05-07 01:33 34.37982 -117.31257 3335 ft 4 kts 51°
2026-05-07 01:33 34.37990 -117.31247 3329 ft 0 kts 39°
2026-05-07 01:34 34.38015 -117.31226 3322 ft 6 kts 31°
2026-05-07 01:34 34.38050 -117.31210 3321 ft 0 kts 15°
2026-05-07 01:34 34.38053 -117.31210 3320 ft 0 kts 16°
2026-05-07 01:36 34.38062 -117.31205 3321 ft 6 kts 25°
2026-05-07 01:36 34.38073 -117.31200 3320 ft 0 kts 20°
2026-05-07 01:37 34.38074 -117.31199 3320 ft 0 kts 20°
2026-05-07 01:37 34.38080 -117.31198 3319 ft 5 kts
2026-05-07 01:38 34.38093 -117.31212 3318 ft 0 kts 264°
2026-05-07 01:38 34.38080 -117.31229 3318 ft 0 kts 218°
2026-05-07 01:38 34.38034 -117.31273 3321 ft 33 kts 217°
2026-05-07 01:38 34.37693 -117.31594 3357 ft 89 kts 218°
2026-05-07 01:39 34.37107 -117.32142 3530 ft 120 kts 217°
2026-05-07 01:39 34.36470 -117.32836 4022 ft 117 kts 221°
2026-05-07 01:39 34.35876 -117.33477 4483 ft 116 kts 221°
2026-05-07 01:39 34.35260 -117.34132 4880 ft 119 kts 221°
2026-05-07 01:40 34.34620 -117.34789 5308 ft 121 kts 221°
2026-05-07 01:40 34.33961 -117.35456 5705 ft 125 kts 222°
2026-05-07 01:40 34.33282 -117.36131 6141 ft 127 kts 220°
2026-05-07 01:40 34.32596 -117.36813 6569 ft 130 kts 221°
2026-05-07 01:41 34.31902 -117.37500 6981 ft 128 kts 221°
2026-05-07 01:41 34.31205 -117.38185 7398 ft 131 kts 220°
2026-05-07 01:41 34.30456 -117.38795 7838 ft 132 kts 193°
2026-05-07 01:41 34.29501 -117.38622 7974 ft 159 kts 158°
2026-05-07 01:42 34.28338 -117.38258 8016 ft 183 kts 165°
2026-05-07 01:42 34.27029 -117.37898 8013 ft 202 kts 165°
2026-05-07 01:42 34.25624 -117.37487 7969 ft 210 kts 165°
2026-05-07 01:42 34.24202 -117.37064 7950 ft 210 kts 162°
2026-05-07 01:43 34.22784 -117.36642 7964 ft 212 kts 163°
2026-05-07 01:43 34.21332 -117.36214 7973 ft 216 kts 162°
2026-05-07 01:43 34.19857 -117.35774 7975 ft 220 kts 163°
2026-05-07 01:43 34.18360 -117.35331 7977 ft 222 kts 163°
2026-05-07 01:44 34.16854 -117.34885 7977 ft 223 kts 163°
2026-05-07 01:44 34.15345 -117.34438 7976 ft 224 kts 164°
2026-05-07 01:44 34.13834 -117.33991 7979 ft 223 kts 163°
2026-05-07 01:44 34.12326 -117.33545 7982 ft 223 kts 164°
2026-05-07 01:45 34.10808 -117.33141 7976 ft 224 kts 171°
2026-05-07 01:45 34.09249 -117.33271 7966 ft 226 kts 192°
2026-05-07 01:45 34.07809 -117.34015 7963 ft 226 kts 213°
2026-05-07 01:45 34.06638 -117.35250 7964 ft 224 kts 227°
2026-05-07 01:46 34.05536 -117.36581 7966 ft 224 kts 227°
2026-05-07 01:46 34.04430 -117.37908 7967 ft 224 kts 226°
2026-05-07 01:46 34.03323 -117.39237 7970 ft 224 kts 226°
2026-05-07 01:46 34.02223 -117.40554 7972 ft 222 kts 227°
2026-05-07 01:47 34.01127 -117.41869 7968 ft 222 kts 226°
2026-05-07 01:47 34.00033 -117.43182 7974 ft 222 kts 226°
2026-05-07 01:47 33.98936 -117.44496 7971 ft 222 kts 226°
2026-05-07 01:47 33.97840 -117.45810 7968 ft 222 kts 226°
2026-05-07 01:48 33.96743 -117.47123 7970 ft 222 kts 226°
2026-05-07 01:48 33.95647 -117.48435 7966 ft 222 kts 226°
2026-05-07 01:48 33.94547 -117.49751 7965 ft 223 kts 226°
2026-05-07 01:48 33.93449 -117.51064 7962 ft 222 kts 226°
2026-05-07 01:49 33.92365 -117.52382 7970 ft 221 kts 229°
2026-05-07 01:49 33.91592 -117.53955 7968 ft 218 kts 252°
2026-05-07 01:49 33.91139 -117.55687 7969 ft 217 kts 256°
2026-05-07 01:49 33.90695 -117.57424 7971 ft 217 kts 256°
2026-05-07 01:50 33.90246 -117.59165 7971 ft 218 kts 256°
2026-05-07 01:50 33.89797 -117.60905 7972 ft 218 kts 256°
2026-05-07 01:50 33.89348 -117.62646 7973 ft 218 kts 256°
2026-05-07 01:50 33.88898 -117.64389 7973 ft 218 kts 256°
2026-05-07 01:51 33.88448 -117.66132 7977 ft 218 kts 256°
2026-05-07 01:51 33.87998 -117.67874 7976 ft 218 kts 256°
2026-05-07 01:51 33.87546 -117.69614 7977 ft 218 kts 256°
2026-05-07 01:51 33.87099 -117.71346 7942 ft 212 kts 256°
2026-05-07 01:52 33.86658 -117.73050 7641 ft 213 kts 256°
2026-05-07 01:52 33.86219 -117.74744 7403 ft 211 kts 256°
2026-05-07 01:52 33.85826 -117.76424 7001 ft 208 kts 257°
2026-05-07 01:52 33.85415 -117.78093 6581 ft 207 kts 256°
2026-05-07 01:53 33.84968 -117.79734 6143 ft 205 kts 255°
2026-05-07 01:53 33.84556 -117.81364 5738 ft 202 kts 256°
2026-05-07 01:53 33.84151 -117.82972 5339 ft 200 kts 256°
2026-05-07 01:53 33.83746 -117.84550 4941 ft 189 kts 254°
2026-05-07 01:54 33.83351 -117.86076 4347 ft 192 kts 255°
2026-05-07 01:54 33.82960 -117.87597 4148 ft 189 kts 254°
2026-05-07 01:54 33.82573 -117.89096 3900 ft 187 kts 254°
2026-05-07 01:54 33.82192 -117.90569 3625 ft 185 kts 254°
2026-05-07 01:55 33.81812 -117.92040 3355 ft 185 kts 254°
2026-05-07 01:55 33.81433 -117.93507 3088 ft 182 kts 254°
2026-05-07 01:55 33.81058 -117.94954 2853 ft 180 kts 254°
2026-05-07 01:55 33.80687 -117.96390 2610 ft 180 kts 253°
2026-05-07 01:56 33.80315 -117.97823 2353 ft 178 kts 253°
2026-05-07 01:56 33.79947 -117.99243 2094 ft 178 kts 252°
2026-05-07 01:56 33.79580 -118.00658 1956 ft 174 kts 253°
2026-05-07 01:56 33.79214 -118.02065 1955 ft 178 kts 253°
2026-05-07 01:57 33.78843 -118.03492 1960 ft 180 kts 253°
2026-05-07 01:57 33.78424 -118.04911 1961 ft 180 kts 243°
2026-05-07 01:57 33.77647 -118.06084 1957 ft 181 kts 223°
2026-05-07 01:57 33.76633 -118.07000 1959 ft 183 kts 219°
2026-05-07 01:58 33.75615 -118.07919 1954 ft 183 kts 220°
2026-05-07 01:58 33.74596 -118.08837 1999 ft 183 kts 221°
2026-05-07 01:58 33.73578 -118.09756 1990 ft 183 kts 220°
2026-05-07 01:58 33.72562 -118.10673 1994 ft 183 kts 219°
2026-05-07 01:59 33.71539 -118.11594 1995 ft 181 kts 220°
2026-05-07 01:59 33.70555 -118.12479 1983 ft 175 kts 219°
2026-05-07 01:59 33.69719 -118.13489 1973 ft 168 kts 239°
2026-05-07 01:59 33.69275 -118.14769 1967 ft 164 kts 260°
2026-05-07 02:00 33.69275 -118.16103 1965 ft 160 kts 287°
2026-05-07 02:00 33.69642 -118.17359 1975 ft 159 kts 291°
2026-05-07 02:00 33.70223 -118.18497 1972 ft 162 kts 305°
2026-05-07 02:00 33.70890 -118.19583 1979 ft 157 kts 307°
2026-05-07 02:01 33.71479 -118.20501 1938 ft 132 kts 306°
2026-05-07 02:01 33.72007 -118.21407 1769 ft 131 kts 303°
2026-05-07 02:01 33.72468 -118.22289 1787 ft 121 kts 303°
2026-05-07 02:01 33.72979 -118.23090 1776 ft 121 kts 307°
2026-05-07 02:02 33.73544 -118.23829 1828 ft 121 kts 311°
2026-05-07 02:02 33.74168 -118.24634 1966 ft 141 kts 311°
2026-05-07 02:02 33.74834 -118.25593 1940 ft 156 kts 308°
2026-05-07 02:02 33.75539 -118.26624 1742 ft 152 kts 308°
2026-05-07 02:03 33.75947 -118.27226 1573 ft 133 kts 307°
2026-05-07 02:03 33.76498 -118.28069 1369 ft 123 kts 307°
2026-05-07 02:03 33.77048 -118.28895 1205 ft 133 kts 308°
2026-05-07 02:03 33.77633 -118.29783 1001 ft 138 kts 307°
2026-05-07 02:04 33.78173 -118.30584 801 ft 109 kts 303°
2026-05-07 02:04 33.78638 -118.31298 636 ft 115 kts 304°
2026-05-07 02:04 33.79156 -118.32085 495 ft 120 kts 304°
2026-05-07 02:04 33.79649 -118.32836 244 ft 110 kts 307°
2026-05-07 02:05 33.80151 -118.33579 113 ft 114 kts 302°
2026-05-07 02:05 33.80544 -118.34171 98 ft 40 kts 310°
2026-05-07 02:05 33.80619 -118.34287 99 ft 23 kts 308°
2026-05-07 02:05 33.80753 -118.34490 97 ft 19 kts 307°
2026-05-07 02:06 33.80785 -118.34571 96 ft 9 kts 245°
2026-05-07 02:06 33.80742 -118.34612 97 ft 4 kts 208°
2026-05-07 02:06 33.80738 -118.34615 97 ft 0 kts 209°
2026-05-07 02:07 33.80691 -118.34647 97 ft 20 kts 208°
2026-05-07 02:07 33.80552 -118.34703 100 ft 7 kts 129°
2026-05-07 02:07 33.80514 -118.34702 101 ft 0 kts 229°